Time;durP1;ratioP1;P1;durP2;ratioP2;P2;SDS_P1;SDS_P2;PMS_P1;PMS_P2;Temp;Humidity;BMP_temperature;BMP_pressure;BME280_temperature;BME280_humidity;BME280_pressure;Samples;Min_cycle;Max_cycle;Signal;HPM_P1;HPM_P2
2021/01/14 00:02:04;;;;;;;0.47;0.47;;;3.00;99.90;;;;;;6172591;23;20379;-83
2021/01/14 00:04:30;;;;;;;0.70;0.70;;;2.90;99.90;;;;;;6171456;23;20607;-82
2021/01/14 00:06:57;;;;;;;0.80;0.60;;;2.80;99.90;;;;;;6169669;23;20434;-82
2021/01/14 00:09:22;;;;;;;0.83;0.70;;;2.80;99.90;;;;;;6172719;23;20163;-84
2021/01/14 00:11:49;;;;;;;1.07;0.90;;;2.80;99.90;;;;;;6172399;23;20456;-84
2021/01/14 00:14:14;;;;;;;0.83;0.83;;;2.70;99.90;;;;;;6171228;23;20171;-84
2021/01/14 00:16:40;;;;;;;0.50;0.50;;;2.70;99.90;;;;;;6171404;23;21036;-84
2021/01/14 00:19:06;;;;;;;1.00;0.67;;;2.70;99.90;;;;;;6175432;23;20194;-84
2021/01/14 00:21:37;;;;;;;1.07;0.97;;;2.70;99.90;;;;;;6173641;23;20187;-84
2021/01/14 00:24:03;;;;;;;0.70;0.70;;;2.70;99.90;;;;;;6172858;23;20408;-84
2021/01/14 00:26:28;;;;;;;0.80;0.80;;;2.70;99.90;;;;;;6174984;23;20710;-84
2021/01/14 00:28:54;;;;;;;0.80;0.80;;;2.70;99.90;;;;;;6171607;23;20434;-83
2021/01/14 00:31:20;;;;;;;0.50;0.50;;;2.80;99.90;;;;;;6174493;23;20490;-84
2021/01/14 00:33:46;;;;;;;0.80;0.80;;;2.70;99.90;;;;;;6175056;23;20258;-85
2021/01/14 00:36:11;;;;;;;3.00;1.83;;;2.70;99.90;;;;;;6173122;23;20495;-86
2021/01/14 00:38:37;;;;;;;2.03;1.57;;;2.70;99.90;;;;;;6174110;23;20399;-86
2021/01/14 00:41:03;;;;;;;1.87;1.43;;;2.60;99.90;;;;;;6173491;23;20625;-85
2021/01/14 00:43:31;;;;;;;2.00;1.07;;;2.60;99.90;;;;;;6172047;23;20171;-85
2021/01/14 00:45:57;;;;;;;1.33;1.10;;;2.60;99.90;;;;;;6168869;23;20525;-86
2021/01/14 00:48:22;;;;;;;1.40;1.30;;;2.70;99.90;;;;;;6172209;23;20490;-86
2021/01/14 00:50:49;;;;;;;1.70;0.90;;;2.60;99.90;;;;;;6168769;23;20171;-85
2021/01/14 00:53:15;;;;;;;1.27;1.10;;;2.70;99.90;;;;;;6170181;23;20233;-85
2021/01/14 00:55:41;;;;;;;3.00;2.70;;;2.50;99.90;;;;;;6171871;23;20434;-87
2021/01/14 00:58:07;;;;;;;2.17;1.97;;;2.60;99.90;;;;;;6170155;23;20542;-84
2021/01/14 01:00:32;;;;;;;2.17;1.40;;;2.50;99.90;;;;;;6170418;23;20179;-85
2021/01/14 01:02:58;;;;;;;1.50;1.33;;;2.40;99.90;;;;;;6171018;23;20258;-85
2021/01/14 01:05:23;;;;;;;0.83;0.73;;;2.50;99.90;;;;;;6170766;23;20195;-85
2021/01/14 01:07:57;;;;;;;0.50;0.50;;;2.60;99.90;;;;;;6171328;23;20194;-85
2021/01/14 01:10:23;;;;;;;1.47;0.70;;;2.60;99.90;;;;;;6172760;23;20388;-85
2021/01/14 01:12:52;;;;;;;0.70;0.70;;;2.60;99.90;;;;;;6171416;23;20456;-84
2021/01/14 01:15:18;;;;;;;1.43;1.33;;;2.60;99.90;;;;;;6198905;23;20398;-84
2021/01/14 01:17:44;;;;;;;1.17;1.10;;;2.60;99.90;;;;;;6172220;23;20948;-85
2021/01/14 01:20:10;;;;;;;1.30;1.20;;;2.60;99.90;;;;;;6171819;23;20406;-85
2021/01/14 01:22:36;;;;;;;1.13;1.00;;;2.60;99.90;;;;;;6172904;23;20232;-85
2021/01/14 01:25:01;;;;;;;1.40;1.30;;;2.50;99.90;;;;;;6172041;23;20446;-85
2021/01/14 01:27:27;;;;;;;1.00;0.90;;;2.60;99.90;;;;;;6172378;23;20171;-85
2021/01/14 01:29:53;;;;;;;0.80;0.80;;;2.60;99.90;;;;;;6172003;23;20203;-85
2021/01/14 01:32:18;;;;;;;1.03;0.93;;;2.50;99.90;;;;;;6173167;23;20238;-85
2021/01/14 01:34:44;;;;;;;0.60;0.60;;;2.50;99.90;;;;;;6172601;23;20169;-85
2021/01/14 01:37:09;;;;;;;0.70;0.70;;;2.50;99.90;;;;;;6173835;23;20614;-85
2021/01/14 01:39:35;;;;;;;0.83;0.83;;;2.40;99.90;;;;;;6171435;23;20684;-85
2021/01/14 01:42:01;;;;;;;0.93;0.90;;;2.40;99.90;;;;;;6172798;23;20162;-86
2021/01/14 01:44:26;;;;;;;1.10;1.00;;;2.30;99.90;;;;;;6171550;23;20299;-86
2021/01/14 01:46:55;;;;;;;2.60;0.80;;;2.30;99.90;;;;;;6172907;23;20164;-85
2021/01/14 01:49:22;;;;;;;1.23;1.13;;;2.30;99.90;;;;;;6173723;23;20640;-86
2021/01/14 01:51:51;;;;;;;0.83;0.83;;;2.30;99.90;;;;;;6171615;23;20394;-86
2021/01/14 01:54:17;;;;;;;0.70;0.70;;;2.40;99.90;;;;;;6171600;23;20403;-86
2021/01/14 01:56:43;;;;;;;1.40;1.30;;;2.40;99.90;;;;;;6171935;23;20422;-86
2021/01/14 01:59:09;;;;;;;1.10;0.97;;;2.40;99.90;;;;;;6174204;23;20477;-86
2021/01/14 02:01:42;;;;;;;1.17;0.80;;;2.40;99.90;;;;;;6198647;23;20163;-86
2021/01/14 02:04:08;;;;;;;1.13;1.03;;;2.40;99.90;;;;;;6172913;23;20425;-87
2021/01/14 02:06:52;;;;;;;1.20;0.97;;;2.40;99.90;;;;;;6200578;23;20160;-86
2021/01/14 02:09:21;;;;;;;1.07;1.00;;;2.40;99.90;;;;;;6171534;23;20421;-85
2021/01/14 02:11:55;;;;;;;0.80;0.80;;;2.40;99.90;;;;;;6171364;23;20466;-86
2021/01/14 02:14:28;;;;;;;0.80;0.80;;;2.40;99.90;;;;;;6172185;23;20472;-86
2021/01/14 02:16:55;;;;;;;1.90;0.97;;;2.50;99.90;;;;;;6172419;23;20395;-86
2021/01/14 02:19:32;;;;;;;1.43;0.80;;;2.40;99.90;;;;;;6174027;23;21184;-86
2021/01/14 02:22:07;;;;;;;1.20;1.10;;;2.40;99.90;;;;;;6173331;23;20769;-86
2021/01/14 02:24:43;;;;;;;0.93;0.90;;;2.40;99.90;;;;;;6172189;23;20464;-86
2021/01/14 02:27:09;;;;;;;1.43;1.20;;;2.30;99.90;;;;;;6173261;23;20422;-87
2021/01/14 02:29:38;;;;;;;1.00;1.00;;;2.30;99.90;;;;;;6173771;23;20406;-85
2021/01/14 02:32:13;;;;;;;1.50;1.40;;;2.30;99.90;;;;;;6172336;23;20441;-86
2021/01/14 02:34:39;;;;;;;1.20;1.10;;;2.40;99.90;;;;;;6172069;23;20760;-85
2021/01/14 02:37:04;;;;;;;2.00;1.43;;;2.40;99.90;;;;;;6173557;23;20405;-84
2021/01/14 02:39:30;;;;;;;1.20;1.10;;;2.40;99.90;;;;;;6173063;23;20168;-85
2021/01/14 02:41:56;;;;;;;1.23;1.13;;;2.30;99.90;;;;;;6170485;23;20167;-85
2021/01/14 02:44:21;;;;;;;1.07;1.07;;;2.30;99.90;;;;;;6169340;23;20195;-86
2021/01/14 02:46:47;;;;;;;1.20;1.10;;;2.30;99.90;;;;;;6172440;23;20163;-86
2021/01/14 02:49:15;;;;;;;1.30;1.10;;;2.40;99.90;;;;;;6169979;23;20171;-85
2021/01/14 02:51:47;;;;;;;1.43;1.00;;;2.40;99.90;;;;;;6171553;23;20164;-86
2021/01/14 02:54:14;;;;;;;1.10;1.00;;;2.40;99.90;;;;;;6170278;23;20575;-85
2021/01/14 02:56:44;;;;;;;1.40;0.87;;;2.40;99.90;;;;;;6173086;23;20391;-85
2021/01/14 02:59:09;;;;;;;1.20;1.13;;;2.40;99.90;;;;;;6172252;23;20446;-85
2021/01/14 03:01:35;;;;;;;1.10;1.00;;;2.50;99.90;;;;;;6171742;23;20497;-86
2021/01/14 03:04:01;;;;;;;0.97;0.83;;;2.40;99.90;;;;;;6171884;23;20166;-87
2021/01/14 03:06:27;;;;;;;1.17;0.90;;;2.40;99.90;;;;;;6173043;23;20199;-87
2021/01/14 03:08:53;;;;;;;1.70;0.90;;;2.40;99.90;;;;;;6172327;23;20399;-85
2021/01/14 03:11:26;;;;;;;0.80;0.70;;;2.40;99.90;;;;;;6171063;23;20171;-85
2021/01/14 03:13:51;;;;;;;0.83;0.83;;;2.40;99.90;;;;;;6172416;23;20168;-86
2021/01/14 03:16:17;;;;;;;0.60;0.60;;;2.40;99.90;;;;;;6169999;23;20730;-85
2021/01/14 03:18:44;;;;;;;1.30;0.80;;;2.40;99.90;;;;;;6171853;23;20199;-86
2021/01/14 03:21:11;;;;;;;2.43;0.80;;;2.40;99.90;;;;;;6172232;23;20168;-86
2021/01/14 03:23:37;;;;;;;0.70;0.60;;;2.40;99.90;;;;;;6171090;23;20422;-85
2021/01/14 03:26:05;;;;;;;0.80;0.80;;;2.40;99.90;;;;;;6169985;23;20442;-86
2021/01/14 03:28:30;;;;;;;0.97;0.70;;;2.40;99.90;;;;;;6173406;23;20167;-85
2021/01/14 03:30:56;;;;;;;0.80;0.80;;;2.40;99.90;;;;;;6172656;23;20749;-85
2021/01/14 03:33:22;;;;;;;1.33;0.80;;;2.40;99.90;;;;;;6172306;23;20199;-86
2021/01/14 03:36:05;;;;;;;0.80;0.60;;;2.40;99.90;;;;;;6174429;23;20202;-86
2021/01/14 03:38:35;;;;;;;0.93;0.87;;;2.40;99.90;;;;;;6173846;23;20171;-86
2021/01/14 03:41:02;;;;;;;1.57;1.37;;;2.40;99.90;;;;;;6172115;23;20403;-85
2021/01/14 03:43:27;;;;;;;1.40;1.20;;;2.40;99.90;;;;;;6172571;23;20585;-86
2021/01/14 03:45:53;;;;;;;1.63;1.40;;;2.40;99.90;;;;;;6170983;23;20541;-86
2021/01/14 03:48:18;;;;;;;2.10;1.37;;;2.40;99.90;;;;;;6169563;23;20164;-85
2021/01/14 03:50:44;;;;;;;1.20;1.20;;;2.50;99.90;;;;;;6172508;23;20171;-85
2021/01/14 03:53:09;;;;;;;2.70;1.40;;;2.40;99.90;;;;;;6171542;23;20263;-85
2021/01/14 03:55:35;;;;;;;2.27;1.40;;;2.40;99.90;;;;;;6171248;23;20184;-84
2021/01/14 03:58:02;;;;;;;1.30;1.13;;;2.40;99.90;;;;;;6172784;23;20267;-85
2021/01/14 04:00:27;;;;;;;2.07;1.30;;;2.40;99.90;;;;;;6172077;23;20187;-85
2021/01/14 04:02:53;;;;;;;1.43;1.20;;;2.40;99.90;;;;;;6171787;23;20852;-85
2021/01/14 04:05:18;;;;;;;1.60;1.13;;;2.30;99.90;;;;;;6170068;23;20283;-85
2021/01/14 04:07:44;;;;;;;2.33;1.50;;;2.30;99.90;;;;;;6172777;23;20172;-86
2021/01/14 04:10:10;;;;;;;3.93;1.50;;;2.30;99.90;;;;;;6171422;23;20483;-85
2021/01/14 04:12:35;;;;;;;2.07;1.90;;;2.30;99.90;;;;;;6171006;23;20259;-84
2021/01/14 04:15:02;;;;;;;4.43;1.93;;;2.30;99.90;;;;;;6170902;23;20261;-84
2021/01/14 04:17:30;;;;;;;2.10;1.93;;;2.30;99.90;;;;;;6173533;23;20160;-85
2021/01/14 04:19:55;;;;;;;2.30;2.10;;;2.30;99.90;;;;;;6171339;23;20810;-85
2021/01/14 04:22:21;;;;;;;5.60;2.67;;;2.20;99.90;;;;;;6172977;23;20813;-85
2021/01/14 04:24:47;;;;;;;3.00;2.70;;;2.20;99.90;;;;;;6174914;23;20219;-84
2021/01/14 04:27:13;;;;;;;2.43;2.30;;;2.20;99.90;;;;;;6171486;23;20168;-84
2021/01/14 04:29:39;;;;;;;3.17;2.90;;;2.10;99.90;;;;;;6170856;23;21212;-84
2021/01/14 04:32:04;;;;;;;3.73;2.70;;;2.20;99.90;;;;;;6173749;23;20205;-85
2021/01/14 04:34:30;;;;;;;4.67;2.50;;;2.10;99.90;;;;;;6172640;23;20745;-85
2021/01/14 04:37:01;;;;;;;2.30;2.10;;;2.10;99.90;;;;;;6173744;23;20930;-86
2021/01/14 04:39:27;;;;;;;1.93;1.83;;;2.10;99.90;;;;;;6171937;23;20302;-84
2021/01/14 04:41:59;;;;;;;2.83;2.10;;;2.10;99.90;;;;;;6171788;23;20419;-86
2021/01/14 04:44:27;;;;;;;5.33;1.70;;;2.10;99.90;;;;;;6173959;23;20486;-85
2021/01/14 04:47:03;;;;;;;2.70;1.40;;;2.10;99.90;;;;;;6171514;23;20390;-86
2021/01/14 04:49:29;;;;;;;1.90;1.70;;;2.00;99.90;;;;;;6172130;23;20500;-85
2021/01/14 04:52:03;;;;;;;1.60;1.30;;;2.10;99.90;;;;;;6173921;23;20517;-85
2021/01/14 04:54:34;;;;;;;2.30;1.43;;;2.10;99.90;;;;;;6174061;23;20546;-85
2021/01/14 04:57:18;;;;;;;1.50;1.40;;;2.00;99.90;;;;;;6173361;23;20433;-86
2021/01/14 04:59:53;;;;;;;1.83;1.10;;;1.90;99.90;;;;;;6171680;23;20494;-85
2021/01/14 05:02:25;;;;;;;1.40;1.33;;;1.80;99.90;;;;;;6172878;23;20465;-85
2021/01/14 05:04:52;;;;;;;2.17;1.60;;;1.80;99.90;;;;;;6173051;23;20796;-85
2021/01/14 05:07:32;;;;;;;1.97;1.50;;;1.80;99.90;;;;;;6170441;23;20884;-85
2021/01/14 05:10:05;;;;;;;3.20;2.50;;;1.80;99.90;;;;;;6170686;23;20525;-85
2021/01/14 05:12:33;;;;;;;2.50;1.70;;;1.80;99.90;;;;;;6170666;23;20913;-85
2021/01/14 05:15:00;;;;;;;2.57;1.53;;;1.80;99.90;;;;;;6173519;23;20399;-86
2021/01/14 05:17:29;;;;;;;1.53;1.43;;;1.80;99.90;;;;;;6170704;23;20387;-85
2021/01/14 05:19:56;;;;;;;1.50;1.40;;;1.80;99.90;;;;;;6170201;23;20402;-85
2021/01/14 05:22:24;;;;;;;1.43;1.33;;;1.80;99.90;;;;;;6169457;23;20415;-84
2021/01/14 05:25:11;;;;;;;2.37;1.93;;;1.70;99.90;;;;;;6168914;23;20456;-85
2021/01/14 05:27:37;;;;;;;2.47;2.03;;;1.70;99.90;;;;;;6170638;23;20405;-85
2021/01/14 05:30:11;;;;;;;3.80;2.00;;;1.60;99.90;;;;;;6171257;23;20413;-85
2021/01/14 05:32:41;;;;;;;2.03;1.73;;;1.60;99.90;;;;;;6170742;23;20793;-85
2021/01/14 05:35:09;;;;;;;4.77;2.57;;;1.60;99.90;;;;;;6173734;23;20927;-85
2021/01/14 05:37:43;;;;;;;4.70;3.10;;;1.70;99.90;;;;;;6171893;23;20406;-84
2021/01/14 05:40:11;;;;;;;3.73;3.03;;;1.70;99.90;;;;;;6169555;23;20382;-85
2021/01/14 05:42:40;;;;;;;4.93;2.40;;;1.70;99.90;;;;;;6173147;23;20434;-85
2021/01/14 05:45:21;;;;;;;2.73;2.53;;;1.70;99.90;;;;;;6171025;23;20450;-84
2021/01/14 05:47:47;;;;;;;3.33;2.60;;;1.60;99.90;;;;;;6172317;23;21860;-84
2021/01/14 05:50:13;;;;;;;5.43;3.20;;;1.60;99.90;;;;;;6171429;23;20398;-85
2021/01/14 05:52:41;;;;;;;4.00;3.60;;;1.60;99.90;;;;;;6172919;23;20217;-85
2021/01/14 05:55:11;;;;;;;3.43;3.13;;;1.70;99.90;;;;;;6172667;23;20676;-85
2021/01/14 05:57:38;;;;;;;3.53;3.10;;;1.70;99.90;;;;;;6173308;23;20407;-85
2021/01/14 06:00:14;;;;;;;3.20;2.90;;;1.70;99.90;;;;;;6172317;23;20722;-86
2021/01/14 06:02:40;;;;;;;4.80;3.37;;;1.80;99.90;;;;;;6172597;23;20430;-85
2021/01/14 06:05:27;;;;;;;5.77;3.37;;;1.80;99.90;;;;;;6172230;23;20852;-85
2021/01/14 06:07:54;;;;;;;4.20;3.00;;;1.80;99.90;;;;;;6169962;23;20398;-85
2021/01/14 06:10:41;;;;;;;3.20;2.63;;;1.90;99.90;;;;;;6172433;23;20387;-85
2021/01/14 06:13:07;;;;;;;4.00;3.60;;;1.90;99.90;;;;;;6170681;23;20425;-81
2021/01/14 06:15:32;;;;;;;3.80;3.20;;;1.90;99.90;;;;;;6170863;23;20592;-81
2021/01/14 06:18:01;;;;;;;5.03;3.20;;;1.90;99.90;;;;;;6199468;23;20152;-81
2021/01/14 06:20:27;;;;;;;3.17;2.87;;;1.90;99.90;;;;;;6172214;23;20194;-81
2021/01/14 06:22:56;;;;;;;3.20;2.60;;;1.90;99.90;;;;;;6173078;23;20473;-81
2021/01/14 06:25:22;;;;;;;5.57;3.20;;;1.90;99.90;;;;;;6171308;23;20450;-81
2021/01/14 06:27:56;;;;;;;4.47;3.40;;;2.00;99.90;;;;;;6171733;23;20725;-81
2021/01/14 06:30:22;;;;;;;4.33;3.80;;;1.90;99.90;;;;;;6171404;23;20527;-81
2021/01/14 06:33:01;;;;;;;5.03;4.00;;;1.90;99.90;;;;;;6171104;23;20469;-81
2021/01/14 06:35:27;;;;;;;4.30;3.87;;;1.90;99.90;;;;;;6197873;23;20721;-81
2021/01/14 06:37:54;;;;;;;4.50;3.90;;;1.90;99.90;;;;;;6171757;23;20402;-81
2021/01/14 06:40:28;;;;;;;6.00;4.70;;;1.90;99.90;;;;;;6171800;23;20779;-81
2021/01/14 06:42:57;;;;;;;4.87;4.37;;;1.90;99.90;;;;;;6171467;23;20908;-81
2021/01/14 06:45:26;;;;;;;5.43;4.77;;;1.80;99.90;;;;;;6172645;23;20465;-81
2021/01/14 06:48:02;;;;;;;4.67;4.20;;;1.80;99.90;;;;;;6171112;23;20391;-81
2021/01/14 06:50:35;;;;;;;5.00;4.50;;;1.80;99.90;;;;;;6170889;23;20452;-81
2021/01/14 06:53:00;;;;;;;5.67;5.13;;;1.80;99.90;;;;;;6171443;23;20394;-81
2021/01/14 06:55:28;;;;;;;5.43;4.80;;;1.80;99.90;;;;;;6171807;23;20734;-81
2021/01/14 06:58:09;;;;;;;6.70;5.67;;;1.90;99.90;;;;;;6171925;23;20163;-82
2021/01/14 07:00:39;;;;;;;5.70;5.20;;;1.90;99.90;;;;;;6171471;23;20733;-82
2021/01/14 07:03:18;;;;;;;5.50;5.00;;;1.90;99.90;;;;;;6169156;23;20379;-81
2021/01/14 07:06:04;;;;;;;7.37;6.40;;;1.90;99.90;;;;;;6169904;23;20446;-81
2021/01/14 07:08:40;;;;;;;7.03;6.23;;;2.00;99.90;;;;;;6170979;23;20448;-81
2021/01/14 07:11:17;;;;;;;5.80;4.90;;;2.00;99.90;;;;;;6169877;23;20403;-81
2021/01/14 07:13:53;;;;;;;6.23;4.90;;;2.10;99.90;;;;;;6168563;23;20404;-81
2021/01/14 07:16:24;;;;;;;13.40;8.50;;;2.00;99.90;;;;;;6167617;23;20456;-82
2021/01/14 07:18:50;;;;;;;8.83;6.83;;;2.10;99.90;;;;;;6169648;23;20440;-81
2021/01/14 07:21:36;;;;;;;6.53;5.90;;;2.10;99.90;;;;;;6169647;23;20395;-81
2021/01/14 07:24:05;;;;;;;9.97;6.87;;;2.10;99.90;;;;;;6168971;23;20437;-81
2021/01/14 07:26:32;;;;;;;10.40;7.07;;;2.20;99.90;;;;;;6167839;23;20501;-82
2021/01/14 07:29:02;;;;;;;8.57;7.63;;;2.20;99.90;;;;;;6170698;23;20425;-82
2021/01/14 07:31:28;;;;;;;9.30;6.50;;;2.20;99.90;;;;;;6167435;23;20419;-82
2021/01/14 07:33:54;;;;;;;10.10;6.80;;;2.30;99.90;;;;;;6167617;23;20400;-82
2021/01/14 07:36:25;;;;;;;9.80;6.57;;;2.40;99.90;;;;;;6167838;23;20168;-81
2021/01/14 07:38:57;;;;;;;7.30;6.50;;;2.40;99.90;;;;;;6167851;23;20901;-81
2021/01/14 07:41:23;;;;;;;6.30;5.70;;;2.30;99.90;;;;;;6169710;23;20759;-82
2021/01/14 07:43:50;;;;;;;6.90;5.50;;;2.30;99.90;;;;;;6194114;23;20518;-81
2021/01/14 07:46:24;;;;;;;6.67;5.97;;;2.30;99.90;;;;;;6168616;23;21149;-82
2021/01/14 07:48:52;;;;;;;10.73;7.30;;;2.20;99.90;;;;;;6168543;23;20885;-81
2021/01/14 07:51:18;;;;;;;8.00;7.07;;;2.30;99.90;;;;;;6166968;23;20456;-81
2021/01/14 07:54:04;;;;;;;7.53;6.47;;;2.30;99.90;;;;;;6172030;23;20401;-81
2021/01/14 07:56:31;;;;;;;7.00;6.23;;;2.40;99.90;;;;;;6173105;23;21321;-80
2021/01/14 07:59:00;;;;;;;8.80;7.90;;;2.40;99.90;;;;;;6173457;23;20788;-80
2021/01/14 08:01:26;;;;;;;9.37;8.40;;;2.40;99.90;;;;;;6173017;23;20399;-80
2021/01/14 08:03:54;;;;;;;14.80;10.63;;;2.50;99.90;;;;;;6167733;23;20927;-81
2021/01/14 08:06:34;;;;;;;16.47;8.53;;;2.40;99.90;;;;;;6173245;23;20195;-81
2021/01/14 08:09:08;;;;;;;8.80;7.90;;;2.40;99.90;;;;;;6173659;23;20452;-82
2021/01/14 08:11:34;;;;;;;9.90;7.60;;;2.30;99.90;;;;;;6172585;23;20398;-82
2021/01/14 08:14:05;;;;;;;10.57;7.20;;;2.30;99.90;;;;;;6173756;23;20414;-82
2021/01/14 08:16:49;;;;;;;8.37;7.57;;;2.30;99.90;;;;;;6173487;23;21225;-81
2021/01/14 08:19:20;;;;;;;31.90;16.67;;;2.20;99.90;;;;;;6172870;23;20390;-84
2021/01/14 08:21:58;;;;;;;14.43;10.57;;;2.30;99.90;;;;;;6173863;23;20399;-82
2021/01/14 08:24:47;;;;;;;13.57;10.77;;;2.40;99.90;;;;;;6172051;23;20409;-81
2021/01/14 08:27:22;;;;;;;13.57;9.60;;;2.40;99.90;;;;;;6173268;23;20396;-82
2021/01/14 08:30:07;;;;;;;9.80;6.60;;;2.40;99.90;;;;;;6172559;23;20477;-81
2021/01/14 08:32:34;;;;;;;11.90;7.00;;;2.50;99.90;;;;;;6173163;23;20395;-81
2021/01/14 08:35:05;;;;;;;7.67;6.33;;;2.50;99.90;;;;;;6172143;23;20402;-85
2021/01/14 08:40:37;;;;;;;7.70;6.60;;;2.40;99.90;;;;;;6200058;23;20788;-85
2021/01/14 08:43:08;;;;;;;7.83;5.87;;;2.30;99.90;;;;;;6198348;23;20406;-85
2021/01/14 08:45:55;;;;;;;8.53;6.00;;;2.30;99.90;;;;;;6171440;23;20536;-87
2021/01/14 08:48:34;;;;;;;8.13;6.40;;;2.40;99.90;;;;;;6172425;23;20626;-86
2021/01/14 08:51:02;;;;;;;7.50;6.77;;;2.50;99.90;;;;;;6171986;23;20465;-86
2021/01/14 08:53:31;;;;;;;7.50;6.70;;;2.40;99.90;;;;;;6171065;23;20771;-85
2021/01/14 08:56:03;;;;;;;7.73;5.73;;;2.40;99.90;;;;;;6171574;23;20400;-85
2021/01/14 08:58:45;;;;;;;9.63;6.47;;;2.30;99.90;;;;;;6171575;23;20877;-85
2021/01/14 09:01:22;;;;;;;7.90;7.13;;;2.40;99.90;;;;;;6170901;23;20827;-85
2021/01/14 09:03:49;;;;;;;7.53;6.00;;;2.30;99.90;;;;;;6172672;23;20507;-85
2021/01/14 09:06:16;;;;;;;9.10;6.57;;;2.30;99.90;;;;;;6172000;23;20449;-84
2021/01/14 09:08:42;;;;;;;8.87;7.37;;;2.40;99.90;;;;;;6172046;23;20731;-84
2021/01/14 09:11:08;;;;;;;10.17;7.07;;;2.40;99.90;;;;;;6169837;23;20406;-84
2021/01/14 09:13:34;;;;;;;8.70;7.80;;;2.40;99.90;;;;;;6171353;23;20396;-86
2021/01/14 09:16:20;;;;;;;9.50;7.23;;;2.50;99.90;;;;;;6171864;23;20430;-85
2021/01/14 09:18:45;;;;;;;12.00;6.40;;;2.50;99.90;;;;;;6171098;23;21126;-85
2021/01/14 09:21:11;;;;;;;6.90;6.10;;;2.40;99.90;;;;;;6167740;23;20755;-84
2021/01/14 09:23:38;;;;;;;8.20;6.07;;;2.50;99.90;;;;;;6171505;23;20193;-84
2021/01/14 09:26:20;;;;;;;12.00;8.03;;;2.40;99.90;;;;;;6172484;23;20555;-85
2021/01/14 09:28:53;;;;;;;10.93;7.47;;;2.30;99.90;;;;;;6172322;23;20399;-84
2021/01/14 09:31:20;;;;;;;10.70;6.67;;;2.30;99.90;;;;;;6171063;23;20940;-84
2021/01/14 09:33:48;;;;;;;10.63;6.53;;;2.30;99.90;;;;;;6170852;23;20400;-84
2021/01/14 09:43:45;;;;;;;7.50;4.40;;;2.30;99.90;;;;;;6198557;23;20476;-85
2021/01/14 09:46:49;;;;;;;8.47;5.60;;;2.40;99.90;;;;;;6171710;23;20447;-84
2021/01/14 09:49:45;;;;;;;6.63;5.80;;;2.40;99.90;;;;;;6171659;23;20408;-84
2021/01/14 09:52:45;;;;;;;8.00;6.67;;;2.30;99.90;;;;;;6169873;23;20615;-83
2021/01/14 09:55:45;;;;;;;15.53;9.53;;;2.40;99.90;;;;;;6172397;23;20457;-83
2021/01/14 09:58:46;;;;;;;14.10;7.33;;;2.40;99.90;;;;;;6172011;23;20399;-84
2021/01/14 10:01:53;;;;;;;7.07;5.30;;;2.50;99.90;;;;;;6171716;23;20529;-83
2021/01/14 10:04:49;;;;;;;5.20;4.70;;;2.50;99.90;;;;;;6166150;23;20474;-84
2021/01/14 10:07:47;;;;;;;4.97;4.47;;;2.50;99.90;;;;;;6171850;23;20402;-83
2021/01/14 10:10:47;;;;;;;4.30;3.90;;;2.50;99.90;;;;;;6171056;23;20470;-83
2021/01/14 10:13:50;;;;;;;7.53;5.10;;;2.60;99.90;;;;;;6172604;23;20710;-83
2021/01/14 10:16:44;;;;;;;5.80;4.47;;;2.50;99.90;;;;;;6172279;23;20531;-83
2021/01/14 10:19:11;;;;;;;7.87;6.10;;;2.50;99.90;;;;;;6171608;23;20410;-83
2021/01/14 10:21:38;;;;;;;12.53;6.87;;;2.40;99.90;;;;;;6171804;23;20888;-82
2021/01/14 10:27:44;;;;;;;9.33;6.53;;;2.40;99.90;;;;;;6199100;23;20453;-83
2021/01/14 10:30:40;;;;;;;7.47;5.30;;;2.40;99.90;;;;;;6172563;23;20493;-82
2021/01/14 10:33:07;;;;;;;5.33;4.53;;;2.40;99.90;;;;;;6170503;23;20411;-83
2021/01/14 10:35:34;;;;;;;4.70;4.30;;;2.50;99.90;;;;;;6172989;23;20516;-83
2021/01/14 10:38:14;;;;;;;4.73;3.87;;;2.40;99.90;;;;;;6173032;23;20526;-82
2021/01/14 10:40:47;;;;;;;7.10;4.30;;;2.40;99.90;;;;;;6173234;23;20418;-83
2021/01/14 10:43:17;;;;;;;6.20;3.77;;;2.30;99.90;;;;;;6171865;23;20802;-82
2021/01/14 10:45:43;;;;;;;5.30;4.10;;;2.20;99.90;;;;;;6193791;23;20434;-82
2021/01/14 10:48:10;;;;;;;7.47;4.73;;;2.10;99.90;;;;;;6172030;23;20394;-82
2021/01/14 10:50:59;;;;;;;4.30;3.80;;;2.20;99.90;;;;;;6172380;23;20905;-83
2021/01/14 10:53:53;;;;;;;6.30;3.83;;;2.20;99.90;;;;;;6168178;23;20911;-83
2021/01/14 10:56:20;;;;;;;4.70;4.30;;;2.20;99.90;;;;;;6172725;23;20398;-82
2021/01/14 10:58:59;;;;;;;6.13;4.77;;;2.20;99.90;;;;;;6172597;23;20406;-83
2021/01/14 11:01:25;;;;;;;4.30;3.90;;;2.20;99.90;;;;;;6168087;23;20445;-82
2021/01/14 11:03:55;;;;;;;4.80;4.20;;;2.20;99.90;;;;;;6171909;23;20410;-82
2021/01/14 11:06:32;;;;;;;5.60;4.47;;;2.20;99.90;;;;;;6147438;23;20844;-82
2021/01/14 11:09:07;;;;;;;7.07;4.13;;;2.30;99.90;;;;;;6173156;23;20398;-83
2021/01/14 11:11:35;;;;;;;5.73;4.63;;;2.30;99.90;;;;;;6168929;23;20402;-83
2021/01/14 11:14:01;;;;;;;4.50;4.10;;;2.20;99.90;;;;;;6172931;23;20485;-83
2021/01/14 11:16:27;;;;;;;4.93;3.90;;;2.10;99.90;;;;;;6172624;23;20398;-82
2021/01/14 11:18:55;;;;;;;3.90;3.60;;;2.00;99.90;;;;;;6172186;23;20394;-82
2021/01/14 11:21:32;;;;;;;6.30;3.17;;;2.00;99.90;;;;;;6173532;23;20160;-81
2021/01/14 11:23:59;;;;;;;4.70;3.50;;;1.90;99.90;;;;;;6199165;23;20409;-80
2021/01/14 11:26:26;;;;;;;4.73;2.93;;;1.80;99.90;;;;;;6199869;23;20431;-82
2021/01/14 11:28:52;;;;;;;3.17;2.87;;;1.80;99.90;;;;;;6170399;23;20524;-81
2021/01/14 11:34:06;;;;;;;4.70;4.03;;;1.60;99.90;;;;;;6179602;23;20393;-81
2021/01/14 11:36:44;;;;;;;3.83;3.20;;;1.40;99.90;;;;;;6175110;23;20489;-80
2021/01/14 11:39:10;;;;;;;3.40;3.10;;;1.30;99.90;;;;;;6174824;23;20494;-80
2021/01/14 11:41:36;;;;;;;4.10;3.70;;;1.40;99.90;;;;;;6173376;23;20387;-81
2021/01/14 11:44:01;;;;;;;3.00;2.80;;;1.30;99.90;;;;;;6175105;23;20170;-80
2021/01/14 11:46:27;;;;;;;2.60;2.40;;;1.30;99.90;;;;;;6201875;23;20514;-81
2021/01/14 11:48:56;;;;;;;2.40;2.20;;;1.40;99.90;;;;;;6201713;23;20214;-82
2021/01/14 11:51:22;;;;;;;2.37;2.07;;;1.30;99.90;;;;;;6174306;23;20433;-80
2021/01/14 11:53:49;;;;;;;2.70;2.50;;;1.20;99.90;;;;;;6174635;23;20624;-81
2021/01/14 11:56:16;;;;;;;5.53;3.00;;;1.30;99.90;;;;;;6174632;23;20394;-81
2021/01/14 11:58:45;;;;;;;4.40;2.90;;;1.30;99.90;;;;;;6173935;23;20402;-81
2021/01/14 12:01:11;;;;;;;3.50;3.20;;;1.30;99.90;;;;;;6173846;23;20391;-82
2021/01/14 12:03:38;;;;;;;3.27;2.97;;;1.40;99.90;;;;;;6200280;23;20733;-81
2021/01/14 12:06:04;;;;;;;3.23;3.00;;;1.40;99.90;;;;;;6174222;23;20196;-81
2021/01/14 12:08:29;;;;;;;3.43;2.80;;;1.40;99.90;;;;;;6201263;23;20389;-81
2021/01/14 12:10:55;;;;;;;4.10;3.67;;;1.50;99.90;;;;;;6196517;23;20386;-81
2021/01/14 12:13:21;;;;;;;4.03;3.70;;;1.50;99.90;;;;;;6146397;23;20174;-82
2021/01/14 12:15:46;;;;;;;4.10;3.67;;;1.60;99.90;;;;;;6201228;23;20391;-83
2021/01/14 12:18:12;;;;;;;7.20;3.93;;;1.50;99.90;;;;;;6200368;23;20234;-83
2021/01/14 12:20:38;;;;;;;4.50;3.63;;;1.60;99.90;;;;;;6174250;23;20727;-83
2021/01/14 12:23:03;;;;;;;4.03;3.50;;;1.50;99.90;;;;;;6172248;23;20360;-81
2021/01/14 12:25:29;;;;;;;4.23;3.77;;;1.60;99.90;;;;;;6200663;23;20187;-82
2021/01/14 12:27:55;;;;;;;5.90;3.60;;;1.60;99.90;;;;;;6172264;23;20167;-83
2021/01/14 12:30:21;;;;;;;4.20;3.10;;;1.90;99.90;;;;;;6173330;23;20396;-83
2021/01/14 12:32:47;;;;;;;5.00;4.20;;;1.90;99.90;;;;;;6172116;23;20175;-83
2021/01/14 12:35:12;;;;;;;4.47;3.87;;;1.70;99.90;;;;;;6172555;23;20395;-83
2021/01/14 12:37:44;;;;;;;4.43;4.03;;;1.80;99.90;;;;;;6172999;23;20164;-83
2021/01/14 12:40:10;;;;;;;3.73;3.43;;;1.90;99.90;;;;;;6172331;23;20489;-84
2021/01/14 12:42:36;;;;;;;3.73;3.30;;;2.20;99.90;;;;;;6171690;23;20402;-84
2021/01/14 12:45:03;;;;;;;4.87;4.43;;;2.20;99.90;;;;;;6174176;23;20493;-84
2021/01/14 12:47:47;;;;;;;4.40;3.80;;;2.30;99.90;;;;;;6173640;23;20800;-83
2021/01/14 12:50:14;;;;;;;4.37;3.97;;;2.40;99.90;;;;;;6172725;23;20959;-83
2021/01/14 12:52:40;;;;;;;4.57;3.37;;;2.20;99.90;;;;;;6170427;23;20500;-82
2021/01/14 12:55:06;;;;;;;3.53;3.23;;;2.30;99.90;;;;;;6167026;23;20947;-84
2021/01/14 12:57:32;;;;;;;3.80;3.47;;;2.20;99.90;;;;;;6171897;23;20213;-82
2021/01/14 12:59:57;;;;;;;4.27;3.50;;;2.10;99.90;;;;;;6172386;23;20481;-82
2021/01/14 13:02:23;;;;;;;4.10;3.70;;;2.00;99.90;;;;;;6171961;23;20164;-84
2021/01/14 13:04:49;;;;;;;5.60;3.90;;;2.10;99.90;;;;;;6171155;23;20199;-86
2021/01/14 13:07:14;;;;;;;5.20;4.50;;;2.10;99.90;;;;;;6148243;23;20178;-84
2021/01/14 13:09:40;;;;;;;4.53;3.77;;;2.10;99.90;;;;;;6172459;23;20213;-84
2021/01/14 13:12:06;;;;;;;4.37;3.97;;;2.20;99.90;;;;;;6172209;23;20176;-85
2021/01/14 13:14:31;;;;;;;4.50;3.30;;;2.10;99.90;;;;;;6171962;23;20164;-86
2021/01/14 13:16:58;;;;;;;4.57;4.17;;;2.20;99.90;;;;;;6173245;23;20243;-86
2021/01/14 13:19:26;;;;;;;7.87;6.30;;;2.20;99.90;;;;;;6198677;23;20170;-86
2021/01/14 13:21:52;;;;;;;6.70;5.37;;;2.20;99.90;;;;;;6173460;23;20441;-84
2021/01/14 13:24:20;;;;;;;11.90;7.07;;;2.20;99.90;;;;;;6149126;23;20745;-84
2021/01/14 13:26:47;;;;;;;11.13;8.47;;;2.20;99.90;;;;;;6172714;23;20406;-84
2021/01/14 13:29:18;;;;;;;7.63;6.17;;;2.30;99.90;;;;;;6173310;23;20462;-84